Flight Track Log - Related Links

Times and Time Zones

All times are in EST time to prevent confusion due to time zone crossing. See the ASQ5874 flight status page for this flight to view local times or setup timezone preferences in your user account.

Time Position Orientation Groundspeed Altitude Reporting Facility
EST Latitude Longitude Course Direction KTS MPH feet Rate Location/Type
Sat 06:55:14 AM 37.6381 -97.4467 65° Northeast 169 194 1,900  Level Kansas Center
Sat 06:55:20 AM 37.6322 -97.4503 206° Southwest 167 192 2,300 2,182 Climbing Kansas Center
Sat 06:56:20 AM 37.6081 -97.5042 240° Southwest 200 230 4,300 1,915 Climbing Kansas Center
Sat 06:56:54 AM 37.6225 -97.5247 312° West 207 238 5,300 1,723 Climbing Kansas Center
Sat 06:57:54 AM 37.6842 -97.5103 11° North 223 257 7,000 1,900 Climbing Kansas Center
Sat 06:58:00 AM 37.8974 -96.9594 25° Northeast  Level Estimated
Sat 06:58:54 AM 37.7572 -97.4881 14° North 259 298 9,100  Level Kansas Center
Sat 06:59:00 AM 37.9589 -96.8405 15° North  Level Estimated
Sat 06:59:54 AM 37.8353 -97.4667 12° North 281 323 10,800  Level Kansas Center
Sat 07:00:00 AM 38.0204 -96.7214 65° Northeast  Level Estimated
Sat 07:00:54 AM 37.9203 -97.4217 23° Northeast 341 392 11,500  Level Kansas Center
Sat 07:01:55 AM 37.9786 -97.3125 56° Northeast 371 427 13,100 1,587 Climbing Kansas Center
Sat 07:02:55 AM 38.0364 -97.2042 56° Northeast 373 429 14,700 1,350 Climbing Kansas Center
Sat 07:03:55 AM 38.0953 -97.0911 56° Northeast 382 440 15,800 1,050 Climbing Kansas Center
Sat 07:04:55 AM 38.1575 -96.9714 57° Northeast 398 458 16,800 950 Climbing Kansas Center
Sat 07:05:55 AM 38.2142 -96.8497 59° Northeast 407 468 17,700 1,091 Climbing Kansas Center
Sat 07:06:56 AM 38.2869 -96.6992 58° Northeast 415 478 19,000 1,240 Climbing Kansas Center
Sat 07:07:56 AM 38.3486 -96.5711 58° Northeast 423 487 20,200 1,100 Climbing Kansas Center
Sat 07:08:56 AM 38.4092 -96.4456 58° Northeast 427 491 21,200 900 Climbing Kansas Center
Sat 07:09:56 AM 38.4689 -96.3183 59° Northeast 437 503 22,000 893 Climbing Kansas Center
Sat 07:10:57 AM 38.5306 -96.1878 59° Northeast 446 513 23,000 1,240 Climbing Kansas Center
Sat 07:11:57 AM 38.5994 -96.0350 60° Northeast 445 512 24,500 1,300 Climbing Kansas Center
Sat 07:12:57 AM 38.6606 -95.9089 58° Northeast 440 506 25,600 942 Climbing Kansas Center
Sat 07:13:58 AM 38.7222 -95.7789 59° Northeast 443 510 26,400 843 Climbing Kansas Center
Sat 07:14:58 AM 38.7942 -95.6233 59° Northeast 455 524 27,300 843 Climbing Kansas Center
Sat 07:15:59 AM 38.8569 -95.4881 59° Northeast 462 532 28,100 843 Climbing Kansas Center
Sat 07:16:59 AM 38.9200 -95.3528 59° Northeast 464 534 29,000 1,000 Climbing Kansas Center
Sat 07:17:59 AM 38.9925 -95.1933 60° Northeast 467 537 30,100 942 Climbing Kansas Center
Sat 07:19:00 AM 39.0553 -95.0561 59° Northeast 471 542 30,900 893 Climbing Kansas Center
Sat 07:20:00 AM 39.1186 -94.9172 60° Northeast 475 547 31,900 1,041 Climbing Kansas Center
Sat 07:21:01 AM 39.1922 -94.7531 60° Northeast 477 549 33,000 545 Climbing Kansas Center
Sat 07:22:01 AM 39.2592 -94.6083 59° Northeast 488 562 33,000  Level Kansas Center
Sat 07:23:02 AM 39.3269 -94.4561 60° Northeast 510 587 33,000  Level Kansas Center
Sat 07:24:02 AM 39.4075 -94.2775 60° Northeast 516 594 33,000  Level Kansas Center
Sat 07:25:03 AM 39.4753 -94.1236 60° Northeast 514 592 33,000  Level Kansas Center
Sat 07:26:04 AM 39.5433 -93.9689 60° Northeast 517 595 33,000  Level Kansas Center
Sat 07:27:04 AM 39.6231 -93.7886 60° Northeast 517 595 33,000  Level Kansas Center
Sat 07:28:05 AM 39.6831 -93.6486 61° Northeast 521 600 33,000  Level Kansas Center
Sat 07:29:05 AM 39.7533 -93.4872 60° Northeast 520 598 33,000  Level Kansas Center
Sat 07:30:06 AM 39.8217 -93.3297 60° Northeast 507 583 33,000  Level Kansas Center
Sat 07:31:07 AM 39.9031 -93.1403 61° Northeast 504 580 33,000  Level Kansas Center
Sat 07:32:07 AM 39.9697 -92.9808 61° Northeast 503 579 33,000  Level Kansas Center
Sat 07:33:08 AM 40.0367 -92.8242 61° Northeast 502 578 33,000  Level Kansas Center
Sat 07:34:09 AM 40.1044 -92.6633 61° Northeast 501 577 33,000  Level Kansas Center
Sat 07:35:09 AM 40.1653 -92.5086 63° Northeast 500 575 33,000  Level Kansas Center
Sat 07:36:10 AM 40.2231 -92.3536 64° Northeast 496 571 33,000  Level Kansas Center
Sat 07:37:10 AM 40.2792 -92.1914 66° East 496 571 33,000  Level Kansas Center
Sat 07:38:11 AM 40.3364 -92.0325 65° Northeast 491 565 33,000  Level Kansas Center
Sat 07:39:12 AM 40.4036 -91.8414 65° Northeast 486 559 33,000  Level Kansas Center
Sat 07:40:12 AM 40.4586 -91.6822 66° East 483 556 33,000  Level Kansas Center
Sat 07:41:13 AM 40.5125 -91.5236 66° East 481 554 33,000  Level Kansas Center
Sat 07:42:14 AM 40.5656 -91.3667 66° East 476 548 33,000  Level Kansas Center
Sat 07:43:14 AM 40.6128 -91.2294 66° East 474 545 33,000  Level Kansas Center
Sat 07:43:56 AM 40.6564 -91.1025 66° East 476 548 33,000  Level Chicago Center
Sat 07:44:57 AM 40.7092 -90.9450 66° East 471 542 33,000  Level Chicago Center
Sat 07:45:58 AM 40.7631 -90.7872 66° East 470 541 33,000  Level Chicago Center
Sat 07:46:59 AM 40.8164 -90.6289 66° East 471 542 33,000 -738 Level Chicago Center
Sat 07:48:00 AM 40.8692 -90.4692 66° East 472 543 31,500 -2,066 Descending Chicago Center
Sat 07:49:01 AM 40.9222 -90.3081 66° East 476 548 28,800 -2,732 Descending Chicago Center
Sat 07:50:03 AM 40.9789 -90.1400 66° East 477 549 25,900 -2,341 Descending Chicago Center
Sat 07:51:04 AM 41.0303 -89.9858 66° East 474 545 24,000 -934 Descending Chicago Center
Sat 07:52:05 AM 41.0800 -89.8336 67° East 454 522 24,000 -98 Level Chicago Center
Sat 07:53:06 AM 41.1294 -89.6839 66° East 444 511 23,800 -787 Descending Chicago Center
Sat 07:54:07 AM 41.1836 -89.5281 65° Northeast 455 524 22,400 -1,805 Descending Chicago Center
Sat 07:55:09 AM 41.2550 -89.3547 61° Northeast 451 519 20,100 -1,902 Descending Chicago Center
Sat 07:56:10 AM 41.3100 -89.2219 61° Northeast 418 481 18,500 -1,770 Descending Chicago Center
Sat 07:57:11 AM 41.3606 -89.0889 63° Northeast 410 472 16,500 -2,164 Descending Chicago Center
Sat 07:58:12 AM 41.4144 -88.9547 62° Northeast 410 472 14,100 -1,967 Descending Chicago Center
Sat 07:59:13 AM 41.4653 -88.8267 62° Northeast 392 451 12,500 -1,033 Descending Chicago Center
Sat 08:00:14 AM 41.5194 -88.7022 60° Northeast 389 448 12,000 -246 Descending Chicago Center
Sat 08:01:15 AM 41.5789 -88.5881 55° Northeast 373 429 12,000 -195 Level Chicago Center
Sat 08:02:17 AM 41.6392 -88.4708 55° Northeast 378 435 11,600 -829 Descending Chicago Center
Sat 08:03:18 AM 41.6986 -88.3531 56° Northeast 378 435 10,300 -787 Descending Chicago Center
Sat 08:04:19 AM 41.7597 -88.2347 55° Northeast 381 438 10,000 -344 Descending Chicago Center
Sat 08:05:20 AM 41.8069 -88.1208 61° Northeast 354 407 9,600 -1,180 Descending Chicago Center
Sat 08:06:21 AM 41.8336 -88.0119 72° East 315 362 7,600 -1,279 Descending Chicago Center
Sat 08:07:22 AM 41.8619 -87.8944 72° East 281 323 7,000 -343 Descending Chicago Center
Sat 08:08:06 AM 41.8833 -87.8333 65° Northeast 234 269 7,000 -692 Level Chicago TRACON
Sat 08:09:06 AM 41.8833 -87.7500 90° East 222 255 5,800 -1,105 Descending Chicago TRACON
Sat 08:10:00 AM 41.9000 -87.6833 71° East 217 250 4,900 -1,000 Descending Chicago TRACON
Sat 08:10:54 AM 41.9500 -87.6833 360° North 209 241 4,000 -842 Descending Chicago TRACON
Sat 08:11:54 AM 41.9667 -87.7333 294° West 163 188 3,300 -800 Descending Chicago TRACON
Sat 08:12:54 AM 41.9667 -87.8000 270° West 148 170 2,400 -950 Descending Chicago TRACON
Sat 08:13:54 AM 41.9667 -87.8333 270° West 120 138 1,400 -1,000 Descending Chicago TRACON

Login

Don't have an account? Register now (free) for customized features, flight alerts, and more!